sensor_id;sensor_type;location;lat;lon;timestamp;temperature;humidity
23083;DHT22;11709;52.420;10.538;2022-08-05T00:02:15;22.00;99.90
23083;DHT22;11709;52.420;10.538;2022-08-05T00:06:18;21.90;99.90
23083;DHT22;11709;52.420;10.538;2022-08-05T00:10:20;21.70;99.90
23083;DHT22;11709;52.420;10.538;2022-08-05T00:14:23;21.70;99.90
23083;DHT22;11709;52.420;10.538;2022-08-05T00:18:26;21.70;99.90
23083;DHT22;11709;52.420;10.538;2022-08-05T00:22:28;21.60;99.90
23083;DHT22;11709;52.420;10.538;2022-08-05T00:26:31;21.60;99.90
23083;DHT22;11709;52.420;10.538;2022-08-05T00:30:33;21.60;99.90
23083;DHT22;11709;52.420;10.538;2022-08-05T00:34:36;21.40;99.90
23083;DHT22;11709;52.420;10.538;2022-08-05T00:38:38;21.40;99.90
23083;DHT22;11709;52.420;10.538;2022-08-05T00:42:41;21.30;99.90
23083;DHT22;11709;52.420;10.538;2022-08-05T00:46:43;21.30;99.90
23083;DHT22;11709;52.420;10.538;2022-08-05T00:50:48;21.40;99.90
23083;DHT22;11709;52.420;10.538;2022-08-05T00:54:51;21.40;99.90
23083;DHT22;11709;52.420;10.538;2022-08-05T00:58:53;21.30;99.90
23083;DHT22;11709;52.420;10.538;2022-08-05T01:02:57;21.20;99.90
23083;DHT22;11709;52.420;10.538;2022-08-05T01:06:59;21.10;99.90
23083;DHT22;11709;52.420;10.538;2022-08-05T01:11:09;21.00;99.90
23083;DHT22;11709;52.420;10.538;2022-08-05T01:15:08;20.90;99.90
23083;DHT22;11709;52.420;10.538;2022-08-05T01:19:25;20.90;99.90
23083;DHT22;11709;52.420;10.538;2022-08-05T01:23:37;20.80;99.90
23083;DHT22;11709;52.420;10.538;2022-08-05T01:32:17;20.80;99.90
23083;DHT22;11709;52.420;10.538;2022-08-05T01:36:23;20.80;99.90
23083;DHT22;11709;52.420;10.538;2022-08-05T01:40:28;20.80;99.90
23083;DHT22;11709;52.420;10.538;2022-08-05T01:44:32;20.80;99.90
23083;DHT22;11709;52.420;10.538;2022-08-05T01:48:36;20.70;99.90
23083;DHT22;11709;52.420;10.538;2022-08-05T01:52:42;20.80;99.90
23083;DHT22;11709;52.420;10.538;2022-08-05T01:56:45;20.60;99.90
23083;DHT22;11709;52.420;10.538;2022-08-05T02:00:50;20.40;99.90
23083;DHT22;11709;52.420;10.538;2022-08-05T02:05:00;20.40;99.90
23083;DHT22;11709;52.420;10.538;2022-08-05T02:08:59;20.50;99.90
23083;DHT22;11709;52.420;10.538;2022-08-05T02:13:51;20.40;99.90
23083;DHT22;11709;52.420;10.538;2022-08-05T02:17:32;20.30;99.90
23083;DHT22;11709;52.420;10.538;2022-08-05T02:21:38;20.10;99.90
23083;DHT22;11709;52.420;10.538;2022-08-05T02:25:42;20.20;99.90
23083;DHT22;11709;52.420;10.538;2022-08-05T02:29:47;20.10;99.90
23083;DHT22;11709;52.420;10.538;2022-08-05T02:33:58;20.10;99.90
23083;DHT22;11709;52.420;10.538;2022-08-05T02:38:02;20.00;99.90
23083;DHT22;11709;52.420;10.538;2022-08-05T02:42:07;20.00;99.90
23083;DHT22;11709;52.420;10.538;2022-08-05T02:46:12;19.90;99.90
23083;DHT22;11709;52.420;10.538;2022-08-05T02:50:16;20.00;99.90
23083;DHT22;11709;52.420;10.538;2022-08-05T02:54:20;19.90;99.90
23083;DHT22;11709;52.420;10.538;2022-08-05T02:58:24;19.90;99.90
23083;DHT22;11709;52.420;10.538;2022-08-05T03:02:29;19.90;99.90
23083;DHT22;11709;52.420;10.538;2022-08-05T03:06:33;19.90;99.90
23083;DHT22;11709;52.420;10.538;2022-08-05T03:10:36;19.80;99.90
23083;DHT22;11709;52.420;10.538;2022-08-05T03:14:39;19.70;99.90
23083;DHT22;11709;52.420;10.538;2022-08-05T03:18:42;19.80;99.90
23083;DHT22;11709;52.420;10.538;2022-08-05T03:22:44;19.90;99.90
23083;DHT22;11709;52.420;10.538;2022-08-05T03:26:47;19.90;99.90
23083;DHT22;11709;52.420;10.538;2022-08-05T03:30:49;19.80;99.90
23083;DHT22;11709;52.420;10.538;2022-08-05T03:34:52;19.80;99.90
23083;DHT22;11709;52.420;10.538;2022-08-05T03:38:55;19.80;99.90
23083;DHT22;11709;52.420;10.538;2022-08-05T03:42:58;19.70;99.90
23083;DHT22;11709;52.420;10.538;2022-08-05T03:47:00;19.50;99.90
23083;DHT22;11709;52.420;10.538;2022-08-05T03:51:46;19.30;99.90
23083;DHT22;11709;52.420;10.538;2022-08-05T03:55:32;19.40;99.90
23083;DHT22;11709;52.420;10.538;2022-08-05T03:59:39;19.40;99.90
23083;DHT22;11709;52.420;10.538;2022-08-05T04:03:42;19.30;99.90
23083;DHT22;11709;52.420;10.538;2022-08-05T04:07:45;19.30;99.90
23083;DHT22;11709;52.420;10.538;2022-08-05T04:11:48;19.30;99.90
23083;DHT22;11709;52.420;10.538;2022-08-05T04:15:51;19.30;99.90
23083;DHT22;11709;52.420;10.538;2022-08-05T04:19:54;19.30;99.90
23083;DHT22;11709;52.420;10.538;2022-08-05T04:23:56;19.30;99.90
23083;DHT22;11709;52.420;10.538;2022-08-05T04:27:59;19.30;99.90
23083;DHT22;11709;52.420;10.538;2022-08-05T04:32:02;19.30;99.90
23083;DHT22;11709;52.420;10.538;2022-08-05T04:36:04;19.40;99.90
23083;DHT22;11709;52.420;10.538;2022-08-05T04:40:08;19.30;99.90
23083;DHT22;11709;52.420;10.538;2022-08-05T04:44:11;19.30;99.90
23083;DHT22;11709;52.420;10.538;2022-08-05T04:48:14;19.30;99.90
23083;DHT22;11709;52.420;10.538;2022-08-05T04:52:17;19.30;99.90
23083;DHT22;11709;52.420;10.538;2022-08-05T04:56:19;19.10;99.90
23083;DHT22;11709;52.420;10.538;2022-08-05T05:00:22;19.20;99.90
23083;DHT22;11709;52.420;10.538;2022-08-05T05:04:25;19.30;99.90
23083;DHT22;11709;52.420;10.538;2022-08-05T05:08:27;19.40;99.90
23083;DHT22;11709;52.420;10.538;2022-08-05T05:12:30;19.30;99.90
23083;DHT22;11709;52.420;10.538;2022-08-05T05:16:32;19.30;99.90
23083;DHT22;11709;52.420;10.538;2022-08-05T05:20:35;19.40;99.90
23083;DHT22;11709;52.420;10.538;2022-08-05T05:24:37;19.30;99.90
23083;DHT22;11709;52.420;10.538;2022-08-05T05:28:40;19.40;99.90
23083;DHT22;11709;52.420;10.538;2022-08-05T05:32:42;19.50;99.90
23083;DHT22;11709;52.420;10.538;2022-08-05T05:36:45;19.40;99.90
23083;DHT22;11709;52.420;10.538;2022-08-05T05:40:47;19.30;99.90
23083;DHT22;11709;52.420;10.538;2022-08-05T05:44:50;19.30;99.90
23083;DHT22;11709;52.420;10.538;2022-08-05T05:48:52;19.20;99.90
23083;DHT22;11709;52.420;10.538;2022-08-05T05:52:55;19.10;99.90
23083;DHT22;11709;52.420;10.538;2022-08-05T05:56:57;19.10;99.90
23083;DHT22;11709;52.420;10.538;2022-08-05T06:01:00;19.10;99.90
23083;DHT22;11709;52.420;10.538;2022-08-05T06:05:03;19.20;99.90
23083;DHT22;11709;52.420;10.538;2022-08-05T06:09:06;19.30;99.90
23083;DHT22;11709;52.420;10.538;2022-08-05T06:13:08;19.40;99.90
23083;DHT22;11709;52.420;10.538;2022-08-05T06:17:11;19.60;99.90
23083;DHT22;11709;52.420;10.538;2022-08-05T06:21:14;19.70;99.90
23083;DHT22;11709;52.420;10.538;2022-08-05T06:25:16;19.80;99.90
23083;DHT22;11709;52.420;10.538;2022-08-05T06:29:22;19.90;99.90
23083;DHT22;11709;52.420;10.538;2022-08-05T06:33:25;19.90;99.90
23083;DHT22;11709;52.420;10.538;2022-08-05T06:37:27;19.80;99.90
23083;DHT22;11709;52.420;10.538;2022-08-05T06:41:30;19.90;99.90
23083;DHT22;11709;52.420;10.538;2022-08-05T06:45:32;19.90;99.90
23083;DHT22;11709;52.420;10.538;2022-08-05T06:49:35;19.80;99.90
23083;DHT22;11709;52.420;10.538;2022-08-05T06:53:38;19.80;99.90
23083;DHT22;11709;52.420;10.538;2022-08-05T06:57:41;19.70;99.90
23083;DHT22;11709;52.420;10.538;2022-08-05T07:01:43;19.70;99.90
23083;DHT22;11709;52.420;10.538;2022-08-05T07:05:46;19.60;99.90
23083;DHT22;11709;52.420;10.538;2022-08-05T07:09:48;19.40;99.90
23083;DHT22;11709;52.420;10.538;2022-08-05T07:13:51;19.40;99.90
23083;DHT22;11709;52.420;10.538;2022-08-05T07:18:12;19.40;99.90
23083;DHT22;11709;52.420;10.538;2022-08-05T07:22:14;19.40;99.90
23083;DHT22;11709;52.420;10.538;2022-08-05T07:26:17;19.50;99.90
23083;DHT22;11709;52.420;10.538;2022-08-05T07:30:19;19.60;99.90
23083;DHT22;11709;52.420;10.538;2022-08-05T07:34:22;19.70;99.90
23083;DHT22;11709;52.420;10.538;2022-08-05T07:38:25;19.70;99.90
23083;DHT22;11709;52.420;10.538;2022-08-05T07:42:27;19.80;99.90
23083;DHT22;11709;52.420;10.538;2022-08-05T07:46:31;19.80;99.90
23083;DHT22;11709;52.420;10.538;2022-08-05T07:50:33;19.80;99.90
23083;DHT22;11709;52.420;10.538;2022-08-05T07:54:37;19.80;99.90
23083;DHT22;11709;52.420;10.538;2022-08-05T07:58:39;20.00;99.90
23083;DHT22;11709;52.420;10.538;2022-08-05T08:02:42;20.10;99.90
23083;DHT22;11709;52.420;10.538;2022-08-05T08:06:44;20.20;99.90
23083;DHT22;11709;52.420;10.538;2022-08-05T08:10:47;20.30;99.90
23083;DHT22;11709;52.420;10.538;2022-08-05T08:14:50;20.40;99.90
23083;DHT22;11709;52.420;10.538;2022-08-05T08:18:52;20.50;99.90
23083;DHT22;11709;52.420;10.538;2022-08-05T08:22:57;20.60;99.90
23083;DHT22;11709;52.420;10.538;2022-08-05T08:27:00;20.70;99.90
23083;DHT22;11709;52.420;10.538;2022-08-05T08:31:07;20.70;99.90
23083;DHT22;11709;52.420;10.538;2022-08-05T08:35:10;20.80;99.90
23083;DHT22;11709;52.420;10.538;2022-08-05T08:39:12;20.80;99.90
23083;DHT22;11709;52.420;10.538;2022-08-05T08:43:18;20.80;99.90
23083;DHT22;11709;52.420;10.538;2022-08-05T08:47:24;20.70;99.90
23083;DHT22;11709;52.420;10.538;2022-08-05T08:51:31;20.80;99.90
23083;DHT22;11709;52.420;10.538;2022-08-05T08:55:33;20.70;99.90
23083;DHT22;11709;52.420;10.538;2022-08-05T08:59:36;20.90;99.90
23083;DHT22;11709;52.420;10.538;2022-08-05T09:03:40;20.90;99.90
23083;DHT22;11709;52.420;10.538;2022-08-05T09:07:43;20.70;99.90
23083;DHT22;11709;52.420;10.538;2022-08-05T09:11:45;20.90;99.90
23083;DHT22;11709;52.420;10.538;2022-08-05T09:15:48;21.20;99.90
23083;DHT22;11709;52.420;10.538;2022-08-05T09:19:50;21.00;99.90
23083;DHT22;11709;52.420;10.538;2022-08-05T09:24:07;20.90;99.90
23083;DHT22;11709;52.420;10.538;2022-08-05T09:28:18;20.60;99.90
23083;DHT22;11709;52.420;10.538;2022-08-05T09:32:18;20.60;99.90
23083;DHT22;11709;52.420;10.538;2022-08-05T09:36:20;20.60;99.90
23083;DHT22;11709;52.420;10.538;2022-08-05T09:40:32;20.90;99.90
23083;DHT22;11709;52.420;10.538;2022-08-05T09:44:40;21.20;99.90
23083;DHT22;11709;52.420;10.538;2022-08-05T09:48:43;21.20;99.90
23083;DHT22;11709;52.420;10.538;2022-08-05T09:52:45;21.10;99.90
23083;DHT22;11709;52.420;10.538;2022-08-05T09:56:48;21.40;99.90
23083;DHT22;11709;52.420;10.538;2022-08-05T10:00:59;21.40;99.90
23083;DHT22;11709;52.420;10.538;2022-08-05T10:05:07;21.40;99.90
23083;DHT22;11709;52.420;10.538;2022-08-05T10:09:13;21.40;99.90
23083;DHT22;11709;52.420;10.538;2022-08-05T10:13:34;21.40;99.90
23083;DHT22;11709;52.420;10.538;2022-08-05T10:17:36;21.40;99.90
23083;DHT22;11709;52.420;10.538;2022-08-05T10:21:39;21.40;99.90
23083;DHT22;11709;52.420;10.538;2022-08-05T10:25:42;21.20;99.90
23083;DHT22;11709;52.420;10.538;2022-08-05T10:29:45;21.30;99.90
23083;DHT22;11709;52.420;10.538;2022-08-05T10:33:47;21.20;99.90
23083;DHT22;11709;52.420;10.538;2022-08-05T10:37:51;21.00;99.90
23083;DHT22;11709;52.420;10.538;2022-08-05T10:42:02;20.90;99.90
23083;DHT22;11709;52.420;10.538;2022-08-05T10:46:07;20.80;99.90
23083;DHT22;11709;52.420;10.538;2022-08-05T10:50:11;20.70;99.90
23083;DHT22;11709;52.420;10.538;2022-08-05T10:54:17;20.70;99.90
23083;DHT22;11709;52.420;10.538;2022-08-05T10:58:19;20.50;99.90
23083;DHT22;11709;52.420;10.538;2022-08-05T11:02:22;20.50;99.90
23083;DHT22;11709;52.420;10.538;2022-08-05T11:06:25;20.60;99.90
23083;DHT22;11709;52.420;10.538;2022-08-05T11:10:28;20.80;99.90
23083;DHT22;11709;52.420;10.538;2022-08-05T11:14:34;21.00;99.90
23083;DHT22;11709;52.420;10.538;2022-08-05T11:18:38;21.10;99.90
23083;DHT22;11709;52.420;10.538;2022-08-05T11:22:45;21.10;99.90
23083;DHT22;11709;52.420;10.538;2022-08-05T11:35:54;20.70;99.90
23083;DHT22;11709;52.420;10.538;2022-08-05T11:39:57;20.40;99.90
23083;DHT22;11709;52.420;10.538;2022-08-05T11:44:11;20.40;99.90
23083;DHT22;11709;52.420;10.538;2022-08-05T11:48:16;20.40;99.90
23083;DHT22;11709;52.420;10.538;2022-08-05T11:52:26;20.20;99.90
23083;DHT22;11709;52.420;10.538;2022-08-05T11:56:50;20.00;99.90
23083;DHT22;11709;52.420;10.538;2022-08-05T12:00:49;19.80;99.90
23083;DHT22;11709;52.420;10.538;2022-08-05T12:04:51;19.40;99.90
23083;DHT22;11709;52.420;10.538;2022-08-05T12:08:56;19.10;99.90
23083;DHT22;11709;52.420;10.538;2022-08-05T12:13:03;19.10;99.90
23083;DHT22;11709;52.420;10.538;2022-08-05T12:17:13;19.00;99.90
23083;DHT22;11709;52.420;10.538;2022-08-05T12:21:22;19.00;99.90
23083;DHT22;11709;52.420;10.538;2022-08-05T12:25:24;19.10;99.90
23083;DHT22;11709;52.420;10.538;2022-08-05T12:29:27;19.10;99.90
23083;DHT22;11709;52.420;10.538;2022-08-05T12:33:30;19.10;99.90
23083;DHT22;11709;52.420;10.538;2022-08-05T12:37:34;19.40;99.90
23083;DHT22;11709;52.420;10.538;2022-08-05T12:41:38;19.50;99.90
23083;DHT22;11709;52.420;10.538;2022-08-05T12:45:52;19.20;99.90
23083;DHT22;11709;52.420;10.538;2022-08-05T12:49:55;19.30;99.90
23083;DHT22;11709;52.420;10.538;2022-08-05T12:54:00;19.40;99.90
23083;DHT22;11709;52.420;10.538;2022-08-05T12:58:03;19.30;99.90
23083;DHT22;11709;52.420;10.538;2022-08-05T13:02:07;19.20;99.90
23083;DHT22;11709;52.420;10.538;2022-08-05T13:06:14;19.20;99.90
23083;DHT22;11709;52.420;10.538;2022-08-05T13:10:17;19.20;99.90
23083;DHT22;11709;52.420;10.538;2022-08-05T13:14:22;19.30;99.90
23083;DHT22;11709;52.420;10.538;2022-08-05T13:18:35;19.30;99.90
23083;DHT22;11709;52.420;10.538;2022-08-05T13:22:38;19.40;99.90
23083;DHT22;11709;52.420;10.538;2022-08-05T13:26:41;19.40;99.90
23083;DHT22;11709;52.420;10.538;2022-08-05T13:30:44;19.40;99.90
23083;DHT22;11709;52.420;10.538;2022-08-05T13:34:47;19.50;99.90
23083;DHT22;11709;52.420;10.538;2022-08-05T13:38:51;19.50;99.90
23083;DHT22;11709;52.420;10.538;2022-08-05T13:42:54;19.50;99.90
23083;DHT22;11709;52.420;10.538;2022-08-05T13:46:56;19.70;99.90
23083;DHT22;11709;52.420;10.538;2022-08-05T13:51:04;19.90;99.90
23083;DHT22;11709;52.420;10.538;2022-08-05T13:55:08;20.10;99.90
23083;DHT22;11709;52.420;10.538;2022-08-05T13:59:10;20.30;99.90
23083;DHT22;11709;52.420;10.538;2022-08-05T14:03:13;20.60;99.90
23083;DHT22;11709;52.420;10.538;2022-08-05T14:07:21;20.70;99.90
23083;DHT22;11709;52.420;10.538;2022-08-05T14:11:20;20.80;99.90
23083;DHT22;11709;52.420;10.538;2022-08-05T14:15:24;20.40;99.90
23083;DHT22;11709;52.420;10.538;2022-08-05T14:19:26;20.50;99.90
23083;DHT22;11709;52.420;10.538;2022-08-05T14:23:29;20.40;99.90
23083;DHT22;11709;52.420;10.538;2022-08-05T14:27:32;20.10;99.90
23083;DHT22;11709;52.420;10.538;2022-08-05T14:31:34;20.10;99.90
23083;DHT22;11709;52.420;10.538;2022-08-05T14:35:37;20.00;99.90
23083;DHT22;11709;52.420;10.538;2022-08-05T14:39:39;20.10;99.90
23083;DHT22;11709;52.420;10.538;2022-08-05T14:43:42;20.00;99.90
23083;DHT22;11709;52.420;10.538;2022-08-05T14:47:44;20.00;99.90
23083;DHT22;11709;52.420;10.538;2022-08-05T14:51:47;20.00;99.90
23083;DHT22;11709;52.420;10.538;2022-08-05T14:55:49;20.00;99.90
23083;DHT22;11709;52.420;10.538;2022-08-05T14:59:52;19.90;99.90
23083;DHT22;11709;52.420;10.538;2022-08-05T15:03:54;19.90;99.90
23083;DHT22;11709;52.420;10.538;2022-08-05T15:07:57;19.70;99.90
23083;DHT22;11709;52.420;10.538;2022-08-05T15:12:00;19.70;99.90
23083;DHT22;11709;52.420;10.538;2022-08-05T15:16:03;19.70;99.90
23083;DHT22;11709;52.420;10.538;2022-08-05T15:20:08;19.90;99.90
23083;DHT22;11709;52.420;10.538;2022-08-05T15:24:11;19.90;99.90
23083;DHT22;11709;52.420;10.538;2022-08-05T15:28:14;19.90;99.90
23083;DHT22;11709;52.420;10.538;2022-08-05T15:32:16;20.00;99.90
23083;DHT22;11709;52.420;10.538;2022-08-05T15:36:19;20.00;99.90
23083;DHT22;11709;52.420;10.538;2022-08-05T15:40:22;19.90;99.90
23083;DHT22;11709;52.420;10.538;2022-08-05T15:44:29;19.90;99.90
23083;DHT22;11709;52.420;10.538;2022-08-05T15:48:29;20.00;99.90
23083;DHT22;11709;52.420;10.538;2022-08-05T15:52:32;19.90;99.90
23083;DHT22;11709;52.420;10.538;2022-08-05T15:56:34;20.00;99.90
23083;DHT22;11709;52.420;10.538;2022-08-05T16:00:37;20.00;99.90
23083;DHT22;11709;52.420;10.538;2022-08-05T16:04:39;20.30;99.90
23083;DHT22;11709;52.420;10.538;2022-08-05T16:08:42;20.70;99.90
23083;DHT22;11709;52.420;10.538;2022-08-05T16:12:45;21.00;99.90
23083;DHT22;11709;52.420;10.538;2022-08-05T16:16:47;21.20;99.90
23083;DHT22;11709;52.420;10.538;2022-08-05T16:20:50;20.90;99.90
23083;DHT22;11709;52.420;10.538;2022-08-05T16:24:52;21.00;99.90
23083;DHT22;11709;52.420;10.538;2022-08-05T16:28:55;21.10;99.90
23083;DHT22;11709;52.420;10.538;2022-08-05T16:32:58;21.00;99.90
23083;DHT22;11709;52.420;10.538;2022-08-05T16:37:01;21.10;99.90
23083;DHT22;11709;52.420;10.538;2022-08-05T16:41:03;21.00;99.90
23083;DHT22;11709;52.420;10.538;2022-08-05T16:45:06;20.80;99.90
23083;DHT22;11709;52.420;10.538;2022-08-05T16:49:09;20.90;99.90
23083;DHT22;11709;52.420;10.538;2022-08-05T16:53:14;21.10;99.90
23083;DHT22;11709;52.420;10.538;2022-08-05T16:57:16;21.00;99.90
23083;DHT22;11709;52.420;10.538;2022-08-05T17:01:21;21.00;99.90
23083;DHT22;11709;52.420;10.538;2022-08-05T17:05:23;20.80;99.90
23083;DHT22;11709;52.420;10.538;2022-08-05T17:09:27;20.90;99.90
23083;DHT22;11709;52.420;10.538;2022-08-05T17:13:29;20.80;99.90
23083;DHT22;11709;52.420;10.538;2022-08-05T17:17:32;20.60;99.90
23083;DHT22;11709;52.420;10.538;2022-08-05T17:21:35;20.50;99.90
23083;DHT22;11709;52.420;10.538;2022-08-05T17:25:38;20.50;99.90
23083;DHT22;11709;52.420;10.538;2022-08-05T17:29:41;20.50;99.90
23083;DHT22;11709;52.420;10.538;2022-08-05T17:33:43;20.40;99.90
23083;DHT22;11709;52.420;10.538;2022-08-05T17:37:46;20.30;99.90
23083;DHT22;11709;52.420;10.538;2022-08-05T17:41:48;20.20;99.90
23083;DHT22;11709;52.420;10.538;2022-08-05T17:45:51;20.20;99.90
23083;DHT22;11709;52.420;10.538;2022-08-05T17:49:53;20.20;99.90
23083;DHT22;11709;52.420;10.538;2022-08-05T17:53:56;20.20;99.90
23083;DHT22;11709;52.420;10.538;2022-08-05T17:57:58;20.20;99.90
23083;DHT22;11709;52.420;10.538;2022-08-05T18:02:02;20.20;99.90
23083;DHT22;11709;52.420;10.538;2022-08-05T18:06:05;20.20;99.90
23083;DHT22;11709;52.420;10.538;2022-08-05T18:10:10;20.20;99.90
23083;DHT22;11709;52.420;10.538;2022-08-05T18:14:13;20.20;99.90
23083;DHT22;11709;52.420;10.538;2022-08-05T18:18:15;20.20;99.90
23083;DHT22;11709;52.420;10.538;2022-08-05T18:22:18;20.10;99.90
23083;DHT22;11709;52.420;10.538;2022-08-05T18:26:24;20.00;99.90
23083;DHT22;11709;52.420;10.538;2022-08-05T18:30:27;20.00;99.90
23083;DHT22;11709;52.420;10.538;2022-08-05T18:34:29;20.00;99.90
23083;DHT22;11709;52.420;10.538;2022-08-05T18:38:34;19.90;99.90
23083;DHT22;11709;52.420;10.538;2022-08-05T18:42:37;19.80;99.90
23083;DHT22;11709;52.420;10.538;2022-08-05T18:46:40;19.70;99.90
23083;DHT22;11709;52.420;10.538;2022-08-05T18:50:42;19.50;99.90
23083;DHT22;11709;52.420;10.538;2022-08-05T18:55:04;19.50;99.90
23083;DHT22;11709;52.420;10.538;2022-08-05T18:59:07;19.40;99.90
23083;DHT22;11709;52.420;10.538;2022-08-05T19:03:10;19.40;99.90
23083;DHT22;11709;52.420;10.538;2022-08-05T19:07:12;19.30;99.90
23083;DHT22;11709;52.420;10.538;2022-08-05T19:11:15;19.30;99.90
23083;DHT22;11709;52.420;10.538;2022-08-05T19:15:17;19.30;99.90
23083;DHT22;11709;52.420;10.538;2022-08-05T19:19:20;19.20;99.90
23083;DHT22;11709;52.420;10.538;2022-08-05T19:23:23;19.10;99.90
23083;DHT22;11709;52.420;10.538;2022-08-05T19:27:26;19.00;99.90
23083;DHT22;11709;52.420;10.538;2022-08-05T19:31:29;18.80;99.90
23083;DHT22;11709;52.420;10.538;2022-08-05T19:35:31;18.70;99.90
23083;DHT22;11709;52.420;10.538;2022-08-05T19:39:34;18.70;99.90
23083;DHT22;11709;52.420;10.538;2022-08-05T19:43:37;18.50;99.90
23083;DHT22;11709;52.420;10.538;2022-08-05T19:47:40;18.30;99.90
23083;DHT22;11709;52.420;10.538;2022-08-05T19:51:43;18.30;99.90
23083;DHT22;11709;52.420;10.538;2022-08-05T19:55:45;18.20;99.90
23083;DHT22;11709;52.420;10.538;2022-08-05T19:59:48;18.10;99.90
23083;DHT22;11709;52.420;10.538;2022-08-05T20:03:50;18.00;99.90
23083;DHT22;11709;52.420;10.538;2022-08-05T20:07:53;17.80;99.90
23083;DHT22;11709;52.420;10.538;2022-08-05T20:11:55;17.80;99.90
23083;DHT22;11709;52.420;10.538;2022-08-05T20:15:58;17.60;99.90
23083;DHT22;11709;52.420;10.538;2022-08-05T20:20:00;17.50;99.90
23083;DHT22;11709;52.420;10.538;2022-08-05T20:24:03;17.40;99.90
23083;DHT22;11709;52.420;10.538;2022-08-05T20:28:07;17.30;99.90
23083;DHT22;11709;52.420;10.538;2022-08-05T20:32:10;17.20;99.90
23083;DHT22;11709;52.420;10.538;2022-08-05T20:36:13;17.00;99.90
23083;DHT22;11709;52.420;10.538;2022-08-05T20:40:15;16.90;99.90
23083;DHT22;11709;52.420;10.538;2022-08-05T20:44:18;16.80;99.90
23083;DHT22;11709;52.420;10.538;2022-08-05T20:48:20;16.60;99.90
23083;DHT22;11709;52.420;10.538;2022-08-05T20:52:23;16.50;99.90
23083;DHT22;11709;52.420;10.538;2022-08-05T20:56:25;16.40;99.90
23083;DHT22;11709;52.420;10.538;2022-08-05T21:00:28;16.40;99.90
23083;DHT22;11709;52.420;10.538;2022-08-05T21:04:30;16.30;99.90
23083;DHT22;11709;52.420;10.538;2022-08-05T21:08:33;16.20;99.90
23083;DHT22;11709;52.420;10.538;2022-08-05T21:12:35;16.10;99.90
23083;DHT22;11709;52.420;10.538;2022-08-05T21:16:38;16.00;99.90
23083;DHT22;11709;52.420;10.538;2022-08-05T21:20:40;15.90;99.90
23083;DHT22;11709;52.420;10.538;2022-08-05T21:24:43;15.80;99.90
23083;DHT22;11709;52.420;10.538;2022-08-05T21:28:45;15.70;99.90
23083;DHT22;11709;52.420;10.538;2022-08-05T21:32:48;15.50;99.90
23083;DHT22;11709;52.420;10.538;2022-08-05T21:36:50;15.40;99.90
23083;DHT22;11709;52.420;10.538;2022-08-05T21:40:53;15.40;99.90
23083;DHT22;11709;52.420;10.538;2022-08-05T21:44:56;15.40;99.90
23083;DHT22;11709;52.420;10.538;2022-08-05T21:48:58;15.40;99.90
23083;DHT22;11709;52.420;10.538;2022-08-05T21:53:01;15.30;99.90
23083;DHT22;11709;52.420;10.538;2022-08-05T21:57:03;15.20;99.90
23083;DHT22;11709;52.420;10.538;2022-08-05T22:01:06;15.10;99.90
23083;DHT22;11709;52.420;10.538;2022-08-05T22:05:09;15.00;99.90
23083;DHT22;11709;52.420;10.538;2022-08-05T22:09:12;14.90;99.90
23083;DHT22;11709;52.420;10.538;2022-08-05T22:13:15;14.90;99.90
23083;DHT22;11709;52.420;10.538;2022-08-05T22:17:18;14.80;99.90
23083;DHT22;11709;52.420;10.538;2022-08-05T22:21:21;14.70;99.90
23083;DHT22;11709;52.420;10.538;2022-08-05T22:25:24;14.60;99.90
23083;DHT22;11709;52.420;10.538;2022-08-05T22:29:44;14.60;99.90
23083;DHT22;11709;52.420;10.538;2022-08-05T22:33:47;14.50;99.90
23083;DHT22;11709;52.420;10.538;2022-08-05T22:37:50;14.50;99.90
23083;DHT22;11709;52.420;10.538;2022-08-05T22:41:53;14.40;99.90
23083;DHT22;11709;52.420;10.538;2022-08-05T22:45:55;14.30;99.90
23083;DHT22;11709;52.420;10.538;2022-08-05T22:50:01;14.40;99.90
23083;DHT22;11709;52.420;10.538;2022-08-05T22:54:04;14.30;99.90
23083;DHT22;11709;52.420;10.538;2022-08-05T22:58:07;14.30;99.90
23083;DHT22;11709;52.420;10.538;2022-08-05T23:02:10;14.30;99.90
23083;DHT22;11709;52.420;10.538;2022-08-05T23:06:14;14.30;99.90
23083;DHT22;11709;52.420;10.538;2022-08-05T23:10:17;14.20;99.90
23083;DHT22;11709;52.420;10.538;2022-08-05T23:14:20;14.20;99.90
23083;DHT22;11709;52.420;10.538;2022-08-05T23:18:22;14.10;99.90
23083;DHT22;11709;52.420;10.538;2022-08-05T23:22:26;14.10;99.90
23083;DHT22;11709;52.420;10.538;2022-08-05T23:26:29;14.00;99.90
23083;DHT22;11709;52.420;10.538;2022-08-05T23:30:31;14.00;99.90
23083;DHT22;11709;52.420;10.538;2022-08-05T23:34:36;14.00;99.90
23083;DHT22;11709;52.420;10.538;2022-08-05T23:38:38;14.00;99.90
23083;DHT22;11709;52.420;10.538;2022-08-05T23:42:41;13.90;99.90
23083;DHT22;11709;52.420;10.538;2022-08-05T23:46:43;13.90;99.90
23083;DHT22;11709;52.420;10.538;2022-08-05T23:50:46;13.80;99.90
23083;DHT22;11709;52.420;10.538;2022-08-05T23:54:48;13.80;99.90
23083;DHT22;11709;52.420;10.538;2022-08-05T23:58:51;13.70;99.90
